Nearby METAR Reports

 

EGEO - Oban, United Kingdom
Distance from station: SSW 18mi, 30km
Updated: 23/03/2020 15:20
NOT Current
Partly cloudy
Partly cloudy
 Wind from S
Wind: S 20 mph , 31 km/h
Temperature: 9°C
Wind Chill: 5°C
Dew Point: 3°C
Humidity: 66%
Barometer: 1017 hPa
Clouds: Partly cloudy
Visibility: 6 miles , 10 km
Cloud details: Partly cloudy 1067 m
2020/03/23 15:20 EGEO 231520Z 18017KT 9999 SCT035 09/03 Q1017
EGPU - Tiree, United Kingdom
Distance from station: WSW 64mi, 103km
Updated: 04/04/2020 00:20
Partly cloudy
Partly cloudy
 Wind from SSW
Wind: SSW 8 mph , 13 km/h
Temperature: 6°C
Wind Chill: 3°C
Dew Point: 5°C
Humidity: 93%
Barometer: 1011 hPa
Clouds: Partly cloudy
Visibility: 6 miles , 10 km
Cloud details: Partly cloudy 1128 m
2020/04/03 23:20 EGPU 032320Z AUTO 21007KT 9999 SCT037/// 06/05 Q1011 RERA
EGPF - Glasgow, United Kingdom
Distance from station: SSE 66mi, 107km
Updated: 04/04/2020 00:20
Light rain, Overcast
Light rain, Overcast
 Wind from SW
Wind: SW 13 mph , 20 km/h
Temperature: 7°C
Wind Chill: 4°C
Dew Point: 5°C
Humidity: 87%
Barometer: 1014 hPa
Summary: Light rain
Clouds: Overcast
Visibility: 6 miles , 10 km
Cloud details: Mostly cloudy 945 m
Overcast 1494 m
2020/04/03 23:20 EGPF 032320Z AUTO 23011KT 9999 -RA BKN031 OVC049 07/05 Q1014
 
EGPE - Inverness, United Kingdom
Distance from station: NE 71mi, 114km
Updated: 04/04/2020 00:20
Clear
Clear
 Wind from SSW
Wind: SSW 5 mph , 7 km/h
Temperature: 3°C
Wind Chill: 1°C
Dew Point: 2°C
Humidity: 93%
Barometer: 1011 hPa
Clouds: Clear
Visibility: 6 miles , 10 km
2020/04/03 23:20 EGPE 032320Z AUTO 21004KT 9999 NCD 03/02 Q1011
EGPI - Islay/Port Ellen, United Kingdom
Distance from station: SSW 81mi, 131km
Updated: 04/04/2020 00:20
Mostly cloudy
Mostly cloudy
 Wind from S
Wind: S 8 mph , 13 km/h
Temperature: 6°C
Wind Chill: 3°C
Dew Point: 4°C
Humidity: 87%
Barometer: 1013 hPa
Clouds: Mostly cloudy
Visibility: 6 miles , 10 km
Cloud details: Mostly cloudy 1463 m
2020/04/03 23:20 EGPI 032320Z AUTO 19007KT 150V220 9999 BKN048/// 06/04 Q1013
EGPN - Dundee/Riverside, United Kingdom
Distance from station: E 86mi, 138km
Updated: 03/04/2020 20:50
NOT Current
Few Clouds
Few Clouds
 Wind from W
Wind: W 3 mph , 6 km/h
Temperature: 6°C
Dew Point: 4°C
Humidity: 87%
Barometer: 1012 hPa
Clouds: Few Clouds
Visibility: 6 miles , 10 km
Cloud details: Few Clouds 1219 m
2020/04/03 19:50 EGPN 031950Z 26003KT 9999 FEW040 06/04 Q1012
 
EGPK - Prestwick, United Kingdom
Distance from station: SSE 88mi, 141km
Updated: 04/04/2020 00:20
Partly cloudy
Partly cloudy
 Wind from SSW
Wind: SSW 2 mph , 4 km/h
Temperature: 6°C
Dew Point: 5°C
Humidity: 93%
Barometer: 1014 hPa
Clouds: Partly cloudy
Visibility: 6 miles , 10 km
Cloud details: Partly cloudy 975 m
2020/04/03 23:20 EGPK 032320Z 21002KT 9999 SCT032 06/05 Q1014
EGPH - Edinburgh, United Kingdom
Distance from station: SE 89mi, 143km
Updated: 04/04/2020 00:20
Few Clouds
Few Clouds
 Wind from SW
Wind: SW 5 mph , 7 km/h
Temperature: 4°C
Wind Chill: 2°C
Dew Point: 3°C
Humidity: 93%
Barometer: 1013 hPa
Clouds: Few Clouds
Visibility: 6 miles , 10 km
Cloud details: Few Clouds 1158 m
2020/04/03 23:20 EGPH 032320Z 23004KT 9999 FEW038 04/03 Q1013
EGQK - RAF Kinloss, United Kingdom
Distance from station: NE 90mi, 144km
Updated: 03/04/2020 23:50
Overcast
Overcast
 Wind from SSW
Wind: SSW 6 mph , 9 km/h
Temperature: 4°C
Wind Chill: 2°C
Dew Point: 2°C
Humidity: 87%
Barometer: 1011 hPa
Clouds: Overcast
Visibility: 6 miles , 10 km
Cloud details: Overcast 2743 m
2020/04/03 22:50 EGQK 032250Z AUTO 20005KT 9999 OVC090/// 04/02 Q1011
 
EGEC - Campbeltown, United Kingdom
Distance from station: S 90mi, 145km
Updated: 03/04/2020 09:50
NOT Current
Mostly cloudy
Mostly cloudy
 Wind from WSW
Wind: WSW 14 mph , 22 km/h
Temperature: 6°C
Wind Chill: 2°C
Dew Point: 5°C
Humidity: 93%
Barometer: 1013 hPa
Clouds: Mostly cloudy
Visibility: 6 miles , 10 km
Cloud details: Few Clouds 305 m
Mostly cloudy 579 m
2020/04/03 08:50 EGEC 030850Z 25012KT 9999 FEW010 BKN019 06/05 Q1013
EGQA - Tain Range, United Kingdom
Distance from station: NNE 91mi, 146km
Updated: 27/03/2020 12:50
NOT Current
Partly cloudy
Partly cloudy
 Wind from calm
Wind: Calm
Clouds: Partly cloudy
Visibility: 6 miles , 10 km
Cloud details: Partly cloudy 1219 m
2020/03/27 12:50 EGQA 271250Z 00000KT 9999 SCT040 12/// Q1033 RMK BLU
EGQL - RAF Leuchars, United Kingdom
Distance from station: ESE 93mi, 149km
Updated: 03/04/2020 23:50
Mostly cloudy
Mostly cloudy
 Wind from WSW
Wind: WSW 9 mph , 15 km/h
Temperature: 5°C
Wind Chill: 2°C
Dew Point: 4°C
Humidity: 93%
Barometer: 1012 hPa
Clouds: Mostly cloudy
Visibility: 6 miles , 10 km
Cloud details: Few Clouds 853 m
Mostly cloudy 3353 m
2020/04/03 22:50 EGQL 032250Z 24008KT 9999 FEW028 BKN110 05/04 Q1012 RMK BLU
 
EGPL - Benbecula, United Kingdom
Distance from station: WNW 96mi, 154km
Updated: 04/04/2020 00:20
Mostly cloudy
Mostly cloudy
 Wind from S
Wind: S 9 mph , 15 km/h
Temperature: 5°C
Wind Chill: 2°C
Dew Point: 4°C
Humidity: 93%
Barometer: 1009 hPa
Clouds: Mostly cloudy
Visibility: 6 miles , 10 km
Cloud details: Few Clouds 610 m
Mostly cloudy 914 m
2020/04/03 23:20 EGPL 032320Z AUTO 17008KT 9999 FEW020/// BKN030/// 05/04 Q1009
EGQS - RAF Lossiemouth, United Kingdom
Distance from station: NE 99mi, 160km
Updated: 03/04/2020 23:50
Mostly cloudy
Mostly cloudy
 Wind from S
Wind: S 6 mph , 9 km/h
Temperature: 3°C
Wind Chill: 0°C
Dew Point: 0°C
Humidity: 81%
Barometer: 1011 hPa
Clouds: Mostly cloudy
Visibility: 6 miles , 10 km
Cloud details: Few Clouds 975 m
Partly cloudy 1646 m
Mostly cloudy 2743 m
2020/04/03 22:50 EGQS 032250Z 17005KT 9999 FEW032 SCT054 BKN090 03/00 Q1011 RMK BLU
EGPO - Stornoway, United Kingdom
Distance from station: NNW 111mi, 179km
Updated: 04/04/2020 00:20
Clear
Clear
 Wind from S
Wind: S 5 mph , 7 km/h
Temperature: 4°C
Wind Chill: 2°C
Dew Point: 2°C
Humidity: 87%
Barometer: 1009 hPa
Clouds: Clear
Visibility: 6 miles , 10 km
2020/04/03 23:20 EGPO 032320Z AUTO 19004KT 9999 NCD 04/02 Q1009
 
EGPD - Aberdeen/Dyce, United Kingdom
Distance from station: ENE 118mi, 190km
Updated: 04/04/2020 00:20
Light rain, Clear
Light rain, Clear
 Wind from varies
Wind: varies 2 mph , 4 km/h
Temperature: 2°C
Dew Point: 1°C
Humidity: 93%
Barometer: 1012 hPa
Summary: Light rain
Clouds: Clear
Visibility: 6 miles , 10 km
2020/04/03 23:20 EGPD 032320Z AUTO VRB02KT 9999 -RA NCD 02/01 Q1012 NOSIG
EGAE - Eglinton/Londond, United Kingdom
Distance from station: SSW 138mi, 222km
Updated: 03/04/2020 20:50
NOT Current
Partly cloudy
Partly cloudy
 Wind from WSW
Wind: WSW 9 mph , 15 km/h
Temperature: 8°C
Wind Chill: 5°C
Dew Point: 4°C
Humidity: 76%
Barometer: 1014 hPa
Clouds: Partly cloudy
Visibility: 6 miles , 10 km
Cloud details: Few Clouds 549 m
Partly cloudy 1219 m
2020/04/03 19:50 EGAE 031950Z 24008KT 9999 FEW018 SCT040 08/04 Q1014
EGPC - Wick, United Kingdom
Distance from station: NNE 144mi, 232km
Updated: 04/04/2020 00:20
Mostly cloudy
Mostly cloudy
 Wind from SW
Wind: SW 3 mph , 6 km/h
Temperature: 3°C
Dew Point: 1°C
Humidity: 87%
Barometer: 1011 hPa
Clouds: Mostly cloudy
Visibility: 6 miles , 10 km
Cloud details: Mostly cloudy 884 m
2020/04/03 23:20 EGPC 032320Z AUTO 22003KT 9999 BKN029/// 03/01 Q1011

Metar display script from Saratoga-Weather.org